sensor_id;sensor_type;location;lat;lon;timestamp;P1;durP1;ratioP1;P2;durP2;ratioP2
7503;SDS011;3793;48.136;11.536;2024-03-08T00:01:33;16.10;;;10.93;;
7503;SDS011;3793;48.136;11.536;2024-03-08T00:04:00;17.30;;;11.40;;
7503;SDS011;3793;48.136;11.536;2024-03-08T00:06:26;15.67;;;10.17;;
7503;SDS011;3793;48.136;11.536;2024-03-08T00:08:53;17.83;;;10.80;;
7503;SDS011;3793;48.136;11.536;2024-03-08T00:11:22;19.63;;;11.57;;
7503;SDS011;3793;48.136;11.536;2024-03-08T00:13:51;17.17;;;11.27;;
7503;SDS011;3793;48.136;11.536;2024-03-08T00:16:18;17.20;;;10.73;;
7503;SDS011;3793;48.136;11.536;2024-03-08T00:18:45;14.87;;;10.33;;
7503;SDS011;3793;48.136;11.536;2024-03-08T00:21:12;16.27;;;10.33;;
7503;SDS011;3793;48.136;11.536;2024-03-08T00:23:40;19.13;;;10.63;;
7503;SDS011;3793;48.136;11.536;2024-03-08T00:26:07;18.87;;;11.70;;
7503;SDS011;3793;48.136;11.536;2024-03-08T00:28:35;17.00;;;11.27;;
7503;SDS011;3793;48.136;11.536;2024-03-08T00:31:02;17.27;;;10.80;;
7503;SDS011;3793;48.136;11.536;2024-03-08T00:33:29;17.20;;;11.70;;
7503;SDS011;3793;48.136;11.536;2024-03-08T00:35:56;16.60;;;10.77;;
7503;SDS011;3793;48.136;11.536;2024-03-08T00:38:22;14.77;;;10.50;;
7503;SDS011;3793;48.136;11.536;2024-03-08T00:40:49;17.13;;;11.27;;
7503;SDS011;3793;48.136;11.536;2024-03-08T00:43:16;18.03;;;12.00;;
7503;SDS011;3793;48.136;11.536;2024-03-08T00:45:44;20.03;;;12.30;;
7503;SDS011;3793;48.136;11.536;2024-03-08T00:48:11;22.37;;;12.50;;
7503;SDS011;3793;48.136;11.536;2024-03-08T00:50:38;18.60;;;11.40;;
7503;SDS011;3793;48.136;11.536;2024-03-08T00:53:05;16.87;;;11.57;;
7503;SDS011;3793;48.136;11.536;2024-03-08T00:55:31;19.03;;;11.83;;
7503;SDS011;3793;48.136;11.536;2024-03-08T00:57:58;18.10;;;11.83;;
7503;SDS011;3793;48.136;11.536;2024-03-08T01:00:25;17.00;;;11.67;;
7503;SDS011;3793;48.136;11.536;2024-03-08T01:02:54;18.93;;;12.30;;
7503;SDS011;3793;48.136;11.536;2024-03-08T01:05:21;21.70;;;12.53;;
7503;SDS011;3793;48.136;11.536;2024-03-08T01:07:48;20.70;;;12.43;;
7503;SDS011;3793;48.136;11.536;2024-03-08T01:10:15;20.17;;;11.47;;
7503;SDS011;3793;48.136;11.536;2024-03-08T01:12:42;18.23;;;11.57;;
7503;SDS011;3793;48.136;11.536;2024-03-08T01:15:10;19.50;;;12.07;;
7503;SDS011;3793;48.136;11.536;2024-03-08T01:17:36;16.87;;;10.70;;
7503;SDS011;3793;48.136;11.536;2024-03-08T01:20:05;22.00;;;12.73;;
7503;SDS011;3793;48.136;11.536;2024-03-08T01:22:32;22.90;;;12.47;;
7503;SDS011;3793;48.136;11.536;2024-03-08T01:24:59;19.13;;;12.20;;
7503;SDS011;3793;48.136;11.536;2024-03-08T01:27:26;21.00;;;12.87;;
7503;SDS011;3793;48.136;11.536;2024-03-08T01:29:53;20.73;;;12.43;;
7503;SDS011;3793;48.136;11.536;2024-03-08T01:32:20;18.03;;;12.13;;
7503;SDS011;3793;48.136;11.536;2024-03-08T01:34:48;19.97;;;13.30;;
7503;SDS011;3793;48.136;11.536;2024-03-08T01:37:16;20.17;;;12.63;;
7503;SDS011;3793;48.136;11.536;2024-03-08T01:39:43;23.00;;;12.33;;
7503;SDS011;3793;48.136;11.536;2024-03-08T01:42:10;17.83;;;12.60;;
7503;SDS011;3793;48.136;11.536;2024-03-08T01:44:40;18.03;;;12.23;;
7503;SDS011;3793;48.136;11.536;2024-03-08T01:47:09;19.87;;;11.60;;
7503;SDS011;3793;48.136;11.536;2024-03-08T01:49:37;16.43;;;11.37;;
7503;SDS011;3793;48.136;11.536;2024-03-08T01:52:04;20.13;;;12.93;;
7503;SDS011;3793;48.136;11.536;2024-03-08T01:54:33;19.57;;;12.90;;
7503;SDS011;3793;48.136;11.536;2024-03-08T01:57:01;18.03;;;12.90;;
7503;SDS011;3793;48.136;11.536;2024-03-08T01:59:28;23.07;;;13.10;;
7503;SDS011;3793;48.136;11.536;2024-03-08T02:01:55;24.17;;;12.67;;
7503;SDS011;3793;48.136;11.536;2024-03-08T02:04:22;20.53;;;12.33;;
7503;SDS011;3793;48.136;11.536;2024-03-08T02:06:49;22.83;;;12.80;;
7503;SDS011;3793;48.136;11.536;2024-03-08T02:09:17;20.50;;;13.27;;
7503;SDS011;3793;48.136;11.536;2024-03-08T02:11:45;20.63;;;13.57;;
7503;SDS011;3793;48.136;11.536;2024-03-08T02:14:12;21.30;;;13.27;;
7503;SDS011;3793;48.136;11.536;2024-03-08T02:16:39;18.60;;;12.27;;
7503;SDS011;3793;48.136;11.536;2024-03-08T02:19:06;20.90;;;13.53;;
7503;SDS011;3793;48.136;11.536;2024-03-08T02:21:36;21.07;;;13.27;;
7503;SDS011;3793;48.136;11.536;2024-03-08T02:24:03;21.17;;;12.80;;
7503;SDS011;3793;48.136;11.536;2024-03-08T02:26:30;21.80;;;13.23;;
7503;SDS011;3793;48.136;11.536;2024-03-08T02:28:57;21.57;;;13.17;;
7503;SDS011;3793;48.136;11.536;2024-03-08T02:31:23;22.60;;;13.20;;
7503;SDS011;3793;48.136;11.536;2024-03-08T02:33:50;21.53;;;13.07;;
7503;SDS011;3793;48.136;11.536;2024-03-08T02:36:17;21.83;;;13.53;;
7503;SDS011;3793;48.136;11.536;2024-03-08T02:38:46;21.27;;;13.07;;
7503;SDS011;3793;48.136;11.536;2024-03-08T02:41:13;21.47;;;13.60;;
7503;SDS011;3793;48.136;11.536;2024-03-08T02:43:39;19.83;;;13.13;;
7503;SDS011;3793;48.136;11.536;2024-03-08T02:46:06;19.93;;;13.13;;
7503;SDS011;3793;48.136;11.536;2024-03-08T02:48:33;22.20;;;13.37;;
7503;SDS011;3793;48.136;11.536;2024-03-08T02:51:00;20.43;;;13.40;;
7503;SDS011;3793;48.136;11.536;2024-03-08T02:53:27;24.00;;;13.97;;
7503;SDS011;3793;48.136;11.536;2024-03-08T02:55:55;22.27;;;13.97;;
7503;SDS011;3793;48.136;11.536;2024-03-08T02:58:22;21.60;;;14.27;;
7503;SDS011;3793;48.136;11.536;2024-03-08T03:00:49;22.67;;;14.73;;
7503;SDS011;3793;48.136;11.536;2024-03-08T03:03:16;22.53;;;14.20;;
7503;SDS011;3793;48.136;11.536;2024-03-08T03:05:42;23.57;;;14.73;;
7503;SDS011;3793;48.136;11.536;2024-03-08T03:08:09;23.83;;;15.00;;
7503;SDS011;3793;48.136;11.536;2024-03-08T03:10:37;23.93;;;13.87;;
7503;SDS011;3793;48.136;11.536;2024-03-08T03:13:05;25.03;;;13.93;;
7503;SDS011;3793;48.136;11.536;2024-03-08T03:15:33;20.33;;;13.00;;
7503;SDS011;3793;48.136;11.536;2024-03-08T03:17:59;21.37;;;13.53;;
7503;SDS011;3793;48.136;11.536;2024-03-08T03:20:26;22.17;;;14.07;;
7503;SDS011;3793;48.136;11.536;2024-03-08T03:22:57;24.80;;;15.10;;
7503;SDS011;3793;48.136;11.536;2024-03-08T03:25:26;23.23;;;13.57;;
7503;SDS011;3793;48.136;11.536;2024-03-08T03:27:59;23.73;;;13.13;;
7503;SDS011;3793;48.136;11.536;2024-03-08T03:30:27;24.90;;;13.83;;
7503;SDS011;3793;48.136;11.536;2024-03-08T03:32:58;23.30;;;13.77;;
7503;SDS011;3793;48.136;11.536;2024-03-08T03:35:25;24.83;;;15.10;;
7503;SDS011;3793;48.136;11.536;2024-03-08T03:37:52;22.13;;;14.87;;
7503;SDS011;3793;48.136;11.536;2024-03-08T03:40:30;21.83;;;13.70;;
7503;SDS011;3793;48.136;11.536;2024-03-08T03:42:57;23.83;;;14.10;;
7503;SDS011;3793;48.136;11.536;2024-03-08T03:45:24;25.00;;;15.43;;
7503;SDS011;3793;48.136;11.536;2024-03-08T03:47:53;23.83;;;14.73;;
7503;SDS011;3793;48.136;11.536;2024-03-08T03:50:19;26.90;;;15.07;;
7503;SDS011;3793;48.136;11.536;2024-03-08T03:52:47;28.30;;;15.83;;
7503;SDS011;3793;48.136;11.536;2024-03-08T03:55:14;24.37;;;15.13;;
7503;SDS011;3793;48.136;11.536;2024-03-08T03:57:41;26.63;;;15.17;;
7503;SDS011;3793;48.136;11.536;2024-03-08T04:00:09;24.87;;;14.97;;
7503;SDS011;3793;48.136;11.536;2024-03-08T04:02:36;24.27;;;14.80;;
7503;SDS011;3793;48.136;11.536;2024-03-08T04:05:06;22.10;;;14.17;;
7503;SDS011;3793;48.136;11.536;2024-03-08T04:07:33;23.83;;;14.17;;
7503;SDS011;3793;48.136;11.536;2024-03-08T04:09:59;21.97;;;14.13;;
7503;SDS011;3793;48.136;11.536;2024-03-08T04:12:26;23.77;;;14.57;;
7503;SDS011;3793;48.136;11.536;2024-03-08T04:14:54;22.40;;;14.17;;
7503;SDS011;3793;48.136;11.536;2024-03-08T04:17:21;22.83;;;14.50;;
7503;SDS011;3793;48.136;11.536;2024-03-08T04:19:49;22.87;;;15.07;;
7503;SDS011;3793;48.136;11.536;2024-03-08T04:22:19;26.77;;;14.87;;
7503;SDS011;3793;48.136;11.536;2024-03-08T04:24:46;27.27;;;15.40;;
7503;SDS011;3793;48.136;11.536;2024-03-08T04:27:13;24.27;;;16.00;;
7503;SDS011;3793;48.136;11.536;2024-03-08T04:29:39;24.37;;;15.33;;
7503;SDS011;3793;48.136;11.536;2024-03-08T04:32:06;23.83;;;15.37;;
7503;SDS011;3793;48.136;11.536;2024-03-08T04:34:33;22.03;;;13.90;;
7503;SDS011;3793;48.136;11.536;2024-03-08T04:37:01;27.80;;;15.93;;
7503;SDS011;3793;48.136;11.536;2024-03-08T04:39:29;25.00;;;15.60;;
7503;SDS011;3793;48.136;11.536;2024-03-08T04:41:56;27.27;;;16.83;;
7503;SDS011;3793;48.136;11.536;2024-03-08T04:44:24;28.87;;;16.87;;
7503;SDS011;3793;48.136;11.536;2024-03-08T04:46:51;27.67;;;16.30;;
7503;SDS011;3793;48.136;11.536;2024-03-08T04:49:18;26.77;;;16.43;;
7503;SDS011;3793;48.136;11.536;2024-03-08T04:51:46;28.63;;;16.80;;
7503;SDS011;3793;48.136;11.536;2024-03-08T04:54:13;24.47;;;15.53;;
7503;SDS011;3793;48.136;11.536;2024-03-08T04:56:41;27.70;;;17.10;;
7503;SDS011;3793;48.136;11.536;2024-03-08T04:59:08;29.27;;;17.30;;
7503;SDS011;3793;48.136;11.536;2024-03-08T05:01:35;29.30;;;17.37;;
7503;SDS011;3793;48.136;11.536;2024-03-08T05:04:03;29.93;;;18.13;;
7503;SDS011;3793;48.136;11.536;2024-03-08T05:06:30;28.93;;;16.10;;
7503;SDS011;3793;48.136;11.536;2024-03-08T05:08:58;30.43;;;17.63;;
7503;SDS011;3793;48.136;11.536;2024-03-08T05:11:25;31.00;;;16.57;;
7503;SDS011;3793;48.136;11.536;2024-03-08T05:13:53;28.30;;;17.47;;
7503;SDS011;3793;48.136;11.536;2024-03-08T05:16:20;29.73;;;18.53;;
7503;SDS011;3793;48.136;11.536;2024-03-08T05:18:47;28.57;;;18.13;;
7503;SDS011;3793;48.136;11.536;2024-03-08T05:21:14;30.60;;;16.93;;
7503;SDS011;3793;48.136;11.536;2024-03-08T05:23:45;30.00;;;16.67;;
7503;SDS011;3793;48.136;11.536;2024-03-08T05:26:12;28.10;;;18.63;;
7503;SDS011;3793;48.136;11.536;2024-03-08T05:28:39;34.80;;;18.67;;
7503;SDS011;3793;48.136;11.536;2024-03-08T05:31:07;30.73;;;18.13;;
7503;SDS011;3793;48.136;11.536;2024-03-08T05:33:34;29.03;;;18.20;;
7503;SDS011;3793;48.136;11.536;2024-03-08T05:36:00;27.90;;;17.90;;
7503;SDS011;3793;48.136;11.536;2024-03-08T05:38:28;31.30;;;18.50;;
7503;SDS011;3793;48.136;11.536;2024-03-08T05:40:54;32.40;;;18.20;;
7503;SDS011;3793;48.136;11.536;2024-03-08T05:43:21;32.13;;;18.97;;
7503;SDS011;3793;48.136;11.536;2024-03-08T05:45:48;28.73;;;16.93;;
7503;SDS011;3793;48.136;11.536;2024-03-08T05:48:16;30.60;;;18.10;;
7503;SDS011;3793;48.136;11.536;2024-03-08T05:50:44;28.10;;;16.47;;
7503;SDS011;3793;48.136;11.536;2024-03-08T05:53:11;24.43;;;15.80;;
7503;SDS011;3793;48.136;11.536;2024-03-08T05:55:38;27.97;;;17.73;;
7503;SDS011;3793;48.136;11.536;2024-03-08T05:58:05;28.60;;;16.97;;
7503;SDS011;3793;48.136;11.536;2024-03-08T06:00:33;31.40;;;17.43;;
7503;SDS011;3793;48.136;11.536;2024-03-08T06:03:01;29.97;;;17.20;;
7503;SDS011;3793;48.136;11.536;2024-03-08T06:05:29;30.87;;;17.90;;
7503;SDS011;3793;48.136;11.536;2024-03-08T06:07:56;28.63;;;17.27;;
7503;SDS011;3793;48.136;11.536;2024-03-08T06:10:23;28.70;;;17.30;;
7503;SDS011;3793;48.136;11.536;2024-03-08T06:12:50;23.57;;;15.03;;
7503;SDS011;3793;48.136;11.536;2024-03-08T06:15:16;25.27;;;15.43;;
7503;SDS011;3793;48.136;11.536;2024-03-08T06:17:46;27.87;;;16.57;;
7503;SDS011;3793;48.136;11.536;2024-03-08T06:20:12;28.13;;;16.03;;
7503;SDS011;3793;48.136;11.536;2024-03-08T06:22:42;29.20;;;15.80;;
7503;SDS011;3793;48.136;11.536;2024-03-08T06:25:10;25.23;;;16.57;;
7503;SDS011;3793;48.136;11.536;2024-03-08T06:27:39;26.33;;;16.47;;
7503;SDS011;3793;48.136;11.536;2024-03-08T06:30:06;27.67;;;15.83;;
7503;SDS011;3793;48.136;11.536;2024-03-08T06:32:34;23.97;;;14.63;;
7503;SDS011;3793;48.136;11.536;2024-03-08T06:35:01;31.43;;;15.63;;
7503;SDS011;3793;48.136;11.536;2024-03-08T06:37:31;25.97;;;14.87;;
7503;SDS011;3793;48.136;11.536;2024-03-08T06:39:59;24.30;;;15.80;;
7503;SDS011;3793;48.136;11.536;2024-03-08T06:42:26;26.70;;;14.80;;
7503;SDS011;3793;48.136;11.536;2024-03-08T06:44:53;26.40;;;13.70;;
7503;SDS011;3793;48.136;11.536;2024-03-08T06:47:25;25.57;;;15.13;;
7503;SDS011;3793;48.136;11.536;2024-03-08T06:49:51;23.17;;;13.97;;
7503;SDS011;3793;48.136;11.536;2024-03-08T06:52:18;28.13;;;15.27;;
7503;SDS011;3793;48.136;11.536;2024-03-08T06:54:45;23.70;;;15.33;;
7503;SDS011;3793;48.136;11.536;2024-03-08T06:57:13;24.93;;;14.83;;
7503;SDS011;3793;48.136;11.536;2024-03-08T06:59:41;24.87;;;15.07;;
7503;SDS011;3793;48.136;11.536;2024-03-08T07:02:08;24.13;;;14.70;;
7503;SDS011;3793;48.136;11.536;2024-03-08T07:04:35;27.60;;;14.57;;
7503;SDS011;3793;48.136;11.536;2024-03-08T07:07:03;23.67;;;13.50;;
7503;SDS011;3793;48.136;11.536;2024-03-08T07:09:30;26.33;;;14.93;;
7503;SDS011;3793;48.136;11.536;2024-03-08T07:11:57;24.20;;;14.93;;
7503;SDS011;3793;48.136;11.536;2024-03-08T07:14:25;24.17;;;14.30;;
7503;SDS011;3793;48.136;11.536;2024-03-08T07:16:52;24.47;;;14.20;;
7503;SDS011;3793;48.136;11.536;2024-03-08T07:19:19;23.77;;;13.13;;
7503;SDS011;3793;48.136;11.536;2024-03-08T07:21:46;23.30;;;14.40;;
7503;SDS011;3793;48.136;11.536;2024-03-08T07:24:13;23.23;;;14.00;;
7503;SDS011;3793;48.136;11.536;2024-03-08T07:26:58;24.03;;;13.93;;
7503;SDS011;3793;48.136;11.536;2024-03-08T07:29:29;26.13;;;15.07;;
7503;SDS011;3793;48.136;11.536;2024-03-08T07:31:58;24.33;;;14.60;;
7503;SDS011;3793;48.136;11.536;2024-03-08T07:34:37;25.40;;;14.40;;
7503;SDS011;3793;48.136;11.536;2024-03-08T07:37:05;24.73;;;15.53;;
7503;SDS011;3793;48.136;11.536;2024-03-08T07:39:32;24.20;;;14.73;;
7503;SDS011;3793;48.136;11.536;2024-03-08T07:41:59;25.73;;;14.60;;
7503;SDS011;3793;48.136;11.536;2024-03-08T07:44:26;21.67;;;13.93;;
7503;SDS011;3793;48.136;11.536;2024-03-08T07:46:54;22.33;;;14.67;;
7503;SDS011;3793;48.136;11.536;2024-03-08T07:49:21;22.77;;;13.97;;
7503;SDS011;3793;48.136;11.536;2024-03-08T07:51:48;22.87;;;14.33;;
7503;SDS011;3793;48.136;11.536;2024-03-08T07:54:15;28.33;;;15.60;;
7503;SDS011;3793;48.136;11.536;2024-03-08T07:56:42;25.87;;;14.73;;
7503;SDS011;3793;48.136;11.536;2024-03-08T07:59:09;25.30;;;13.70;;
7503;SDS011;3793;48.136;11.536;2024-03-08T08:01:37;23.53;;;14.13;;
7503;SDS011;3793;48.136;11.536;2024-03-08T08:04:05;23.07;;;14.40;;
7503;SDS011;3793;48.136;11.536;2024-03-08T08:06:32;23.33;;;14.23;;
7503;SDS011;3793;48.136;11.536;2024-03-08T08:09:00;22.03;;;13.73;;
7503;SDS011;3793;48.136;11.536;2024-03-08T08:11:27;22.53;;;14.40;;
7503;SDS011;3793;48.136;11.536;2024-03-08T08:13:54;23.03;;;13.80;;
7503;SDS011;3793;48.136;11.536;2024-03-08T08:16:22;21.67;;;12.83;;
7503;SDS011;3793;48.136;11.536;2024-03-08T08:18:50;26.57;;;13.53;;
7503;SDS011;3793;48.136;11.536;2024-03-08T08:21:19;23.47;;;15.27;;
7503;SDS011;3793;48.136;11.536;2024-03-08T08:23:47;24.87;;;13.70;;
7503;SDS011;3793;48.136;11.536;2024-03-08T08:26:13;21.43;;;13.30;;
7503;SDS011;3793;48.136;11.536;2024-03-08T08:28:40;24.50;;;14.17;;
7503;SDS011;3793;48.136;11.536;2024-03-08T08:31:08;25.87;;;14.97;;
7503;SDS011;3793;48.136;11.536;2024-03-08T08:33:35;23.20;;;14.53;;
7503;SDS011;3793;48.136;11.536;2024-03-08T08:36:02;25.30;;;13.47;;
7503;SDS011;3793;48.136;11.536;2024-03-08T08:38:30;24.90;;;13.83;;
7503;SDS011;3793;48.136;11.536;2024-03-08T08:40:57;22.77;;;14.67;;
7503;SDS011;3793;48.136;11.536;2024-03-08T08:43:24;21.10;;;13.60;;
7503;SDS011;3793;48.136;11.536;2024-03-08T08:45:52;23.37;;;15.00;;
7503;SDS011;3793;48.136;11.536;2024-03-08T08:48:19;23.07;;;13.83;;
7503;SDS011;3793;48.136;11.536;2024-03-08T08:50:46;25.23;;;14.50;;
7503;SDS011;3793;48.136;11.536;2024-03-08T08:53:13;20.23;;;13.43;;
7503;SDS011;3793;48.136;11.536;2024-03-08T08:55:43;20.60;;;13.37;;
7503;SDS011;3793;48.136;11.536;2024-03-08T08:58:10;19.70;;;13.37;;
7503;SDS011;3793;48.136;11.536;2024-03-08T09:00:38;19.50;;;12.80;;
7503;SDS011;3793;48.136;11.536;2024-03-08T09:03:05;18.80;;;13.00;;
7503;SDS011;3793;48.136;11.536;2024-03-08T09:05:33;19.40;;;12.40;;
7503;SDS011;3793;48.136;11.536;2024-03-08T09:08:00;20.90;;;13.33;;
7503;SDS011;3793;48.136;11.536;2024-03-08T09:10:28;20.47;;;12.63;;
7503;SDS011;3793;48.136;11.536;2024-03-08T09:12:56;22.10;;;13.67;;
7503;SDS011;3793;48.136;11.536;2024-03-08T09:15:24;20.70;;;13.20;;
7503;SDS011;3793;48.136;11.536;2024-03-08T09:17:53;18.87;;;13.53;;
7503;SDS011;3793;48.136;11.536;2024-03-08T09:20:20;24.40;;;15.07;;
7503;SDS011;3793;48.136;11.536;2024-03-08T09:22:47;18.30;;;12.53;;
7503;SDS011;3793;48.136;11.536;2024-03-08T09:25:14;20.23;;;13.43;;
7503;SDS011;3793;48.136;11.536;2024-03-08T09:27:40;20.33;;;14.23;;
7503;SDS011;3793;48.136;11.536;2024-03-08T09:30:09;20.23;;;12.80;;
7503;SDS011;3793;48.136;11.536;2024-03-08T09:32:38;18.70;;;11.83;;
7503;SDS011;3793;48.136;11.536;2024-03-08T09:35:05;19.37;;;13.17;;
7503;SDS011;3793;48.136;11.536;2024-03-08T09:37:32;18.63;;;13.03;;
7503;SDS011;3793;48.136;11.536;2024-03-08T09:40:00;19.17;;;12.77;;
7503;SDS011;3793;48.136;11.536;2024-03-08T09:42:29;18.47;;;12.27;;
7503;SDS011;3793;48.136;11.536;2024-03-08T09:44:57;20.73;;;12.57;;
7503;SDS011;3793;48.136;11.536;2024-03-08T09:47:25;24.47;;;12.80;;
7503;SDS011;3793;48.136;11.536;2024-03-08T09:49:59;17.57;;;12.00;;
7503;SDS011;3793;48.136;11.536;2024-03-08T09:52:26;20.53;;;12.53;;
7503;SDS011;3793;48.136;11.536;2024-03-08T09:54:55;22.17;;;13.47;;
7503;SDS011;3793;48.136;11.536;2024-03-08T09:57:23;20.03;;;13.50;;
7503;SDS011;3793;48.136;11.536;2024-03-08T09:59:50;20.83;;;13.03;;
7503;SDS011;3793;48.136;11.536;2024-03-08T10:02:16;22.80;;;13.40;;
7503;SDS011;3793;48.136;11.536;2024-03-08T10:04:45;21.60;;;13.87;;
7503;SDS011;3793;48.136;11.536;2024-03-08T10:07:12;23.43;;;14.20;;
7503;SDS011;3793;48.136;11.536;2024-03-08T10:09:40;22.67;;;13.83;;
7503;SDS011;3793;48.136;11.536;2024-03-08T10:12:12;21.50;;;14.67;;
7503;SDS011;3793;48.136;11.536;2024-03-08T10:14:40;21.20;;;13.10;;
7503;SDS011;3793;48.136;11.536;2024-03-08T10:17:07;20.60;;;13.90;;
7503;SDS011;3793;48.136;11.536;2024-03-08T10:19:36;21.63;;;14.00;;
7503;SDS011;3793;48.136;11.536;2024-03-08T10:22:05;19.40;;;13.57;;
7503;SDS011;3793;48.136;11.536;2024-03-08T10:24:35;20.77;;;13.73;;
7503;SDS011;3793;48.136;11.536;2024-03-08T10:27:05;20.37;;;14.03;;
7503;SDS011;3793;48.136;11.536;2024-03-08T10:29:32;20.30;;;13.63;;
7503;SDS011;3793;48.136;11.536;2024-03-08T10:31:59;26.33;;;13.87;;
7503;SDS011;3793;48.136;11.536;2024-03-08T10:34:26;22.67;;;13.00;;
7503;SDS011;3793;48.136;11.536;2024-03-08T10:36:55;19.37;;;12.03;;
7503;SDS011;3793;48.136;11.536;2024-03-08T10:39:26;22.00;;;12.13;;
7503;SDS011;3793;48.136;11.536;2024-03-08T10:41:56;18.53;;;12.53;;
7503;SDS011;3793;48.136;11.536;2024-03-08T10:44:36;19.00;;;11.53;;
7503;SDS011;3793;48.136;11.536;2024-03-08T10:47:10;19.73;;;11.63;;
7503;SDS011;3793;48.136;11.536;2024-03-08T10:49:43;16.93;;;12.40;;
7503;SDS011;3793;48.136;11.536;2024-03-08T10:52:12;18.07;;;11.40;;
7503;SDS011;3793;48.136;11.536;2024-03-08T10:54:43;17.50;;;11.10;;
7503;SDS011;3793;48.136;11.536;2024-03-08T10:57:12;17.50;;;10.73;;
7503;SDS011;3793;48.136;11.536;2024-03-08T10:59:40;18.10;;;12.13;;
7503;SDS011;3793;48.136;11.536;2024-03-08T11:02:09;17.17;;;11.13;;
7503;SDS011;3793;48.136;11.536;2024-03-08T11:04:45;14.73;;;10.73;;
7503;SDS011;3793;48.136;11.536;2024-03-08T11:07:12;16.70;;;11.47;;
7503;SDS011;3793;48.136;11.536;2024-03-08T11:09:44;16.53;;;11.13;;
7503;SDS011;3793;48.136;11.536;2024-03-08T11:12:21;17.70;;;11.10;;
7503;SDS011;3793;48.136;11.536;2024-03-08T11:14:50;16.87;;;10.83;;
7503;SDS011;3793;48.136;11.536;2024-03-08T11:17:20;16.57;;;10.70;;
7503;SDS011;3793;48.136;11.536;2024-03-08T11:19:48;17.50;;;11.87;;
7503;SDS011;3793;48.136;11.536;2024-03-08T11:22:20;16.30;;;10.87;;
7503;SDS011;3793;48.136;11.536;2024-03-08T11:24:51;14.73;;;10.47;;
7503;SDS011;3793;48.136;11.536;2024-03-08T11:27:18;15.40;;;10.20;;
7503;SDS011;3793;48.136;11.536;2024-03-08T11:29:59;14.53;;;10.63;;
7503;SDS011;3793;48.136;11.536;2024-03-08T11:32:27;15.87;;;11.30;;
7503;SDS011;3793;48.136;11.536;2024-03-08T11:34:54;16.67;;;11.30;;
7503;SDS011;3793;48.136;11.536;2024-03-08T11:37:21;15.87;;;11.00;;
7503;SDS011;3793;48.136;11.536;2024-03-08T11:39:50;18.37;;;12.13;;
7503;SDS011;3793;48.136;11.536;2024-03-08T11:42:17;17.40;;;11.10;;
7503;SDS011;3793;48.136;11.536;2024-03-08T11:44:58;15.50;;;11.27;;
7503;SDS011;3793;48.136;11.536;2024-03-08T11:47:25;18.40;;;11.27;;
7503;SDS011;3793;48.136;11.536;2024-03-08T11:49:52;17.20;;;11.20;;
7503;SDS011;3793;48.136;11.536;2024-03-08T11:52:19;15.97;;;10.60;;
7503;SDS011;3793;48.136;11.536;2024-03-08T11:54:51;16.70;;;11.67;;
7503;SDS011;3793;48.136;11.536;2024-03-08T11:57:19;19.40;;;10.90;;
7503;SDS011;3793;48.136;11.536;2024-03-08T11:59:49;16.47;;;11.27;;
7503;SDS011;3793;48.136;11.536;2024-03-08T12:02:16;16.40;;;11.23;;
7503;SDS011;3793;48.136;11.536;2024-03-08T12:04:44;17.63;;;10.73;;
7503;SDS011;3793;48.136;11.536;2024-03-08T12:07:11;20.73;;;11.37;;
7503;SDS011;3793;48.136;11.536;2024-03-08T12:09:39;20.07;;;11.90;;
7503;SDS011;3793;48.136;11.536;2024-03-08T12:12:11;17.67;;;11.60;;
7503;SDS011;3793;48.136;11.536;2024-03-08T12:14:38;15.97;;;11.00;;
7503;SDS011;3793;48.136;11.536;2024-03-08T12:17:05;15.23;;;10.27;;
7503;SDS011;3793;48.136;11.536;2024-03-08T12:19:33;14.77;;;11.00;;
7503;SDS011;3793;48.136;11.536;2024-03-08T12:22:06;15.33;;;10.90;;
7503;SDS011;3793;48.136;11.536;2024-03-08T12:24:33;13.73;;;9.90;;
7503;SDS011;3793;48.136;11.536;2024-03-08T12:27:10;15.77;;;11.30;;
7503;SDS011;3793;48.136;11.536;2024-03-08T12:29:43;15.50;;;10.97;;
7503;SDS011;3793;48.136;11.536;2024-03-08T12:32:10;17.03;;;10.47;;
7503;SDS011;3793;48.136;11.536;2024-03-08T12:34:39;15.53;;;10.80;;
7503;SDS011;3793;48.136;11.536;2024-03-08T12:37:06;18.47;;;11.73;;
7503;SDS011;3793;48.136;11.536;2024-03-08T12:39:34;14.27;;;10.53;;
7503;SDS011;3793;48.136;11.536;2024-03-08T12:42:02;16.30;;;11.57;;
7503;SDS011;3793;48.136;11.536;2024-03-08T12:44:29;18.93;;;12.47;;
7503;SDS011;3793;48.136;11.536;2024-03-08T12:46:55;19.67;;;14.03;;
7503;SDS011;3793;48.136;11.536;2024-03-08T12:49:24;17.33;;;13.10;;
7503;SDS011;3793;48.136;11.536;2024-03-08T12:51:53;20.40;;;13.60;;
7503;SDS011;3793;48.136;11.536;2024-03-08T12:54:20;19.13;;;12.90;;
7503;SDS011;3793;48.136;11.536;2024-03-08T12:56:49;18.23;;;13.27;;
7503;SDS011;3793;48.136;11.536;2024-03-08T12:59:18;19.37;;;13.20;;
7503;SDS011;3793;48.136;11.536;2024-03-08T13:01:47;16.63;;;12.20;;
7503;SDS011;3793;48.136;11.536;2024-03-08T13:04:13;19.33;;;12.73;;
7503;SDS011;3793;48.136;11.536;2024-03-08T13:06:40;21.83;;;12.90;;
7503;SDS011;3793;48.136;11.536;2024-03-08T13:09:11;17.23;;;11.83;;
7503;SDS011;3793;48.136;11.536;2024-03-08T13:11:39;16.80;;;11.53;;
7503;SDS011;3793;48.136;11.536;2024-03-08T13:14:06;14.87;;;10.90;;
7503;SDS011;3793;48.136;11.536;2024-03-08T13:16:32;16.37;;;12.70;;
7503;SDS011;3793;48.136;11.536;2024-03-08T13:19:00;18.00;;;12.50;;
7503;SDS011;3793;48.136;11.536;2024-03-08T13:21:26;15.17;;;11.33;;
7503;SDS011;3793;48.136;11.536;2024-03-08T13:23:55;14.93;;;11.37;;
7503;SDS011;3793;48.136;11.536;2024-03-08T13:26:25;14.93;;;11.20;;
7503;SDS011;3793;48.136;11.536;2024-03-08T13:28:57;18.43;;;12.20;;
7503;SDS011;3793;48.136;11.536;2024-03-08T13:31:24;19.10;;;11.47;;
7503;SDS011;3793;48.136;11.536;2024-03-08T13:33:51;18.83;;;11.83;;
7503;SDS011;3793;48.136;11.536;2024-03-08T13:36:25;17.53;;;11.93;;
7503;SDS011;3793;48.136;11.536;2024-03-08T13:38:56;15.20;;;11.17;;
7503;SDS011;3793;48.136;11.536;2024-03-08T13:41:25;17.30;;;12.07;;
7503;SDS011;3793;48.136;11.536;2024-03-08T13:43:52;17.67;;;11.13;;
7503;SDS011;3793;48.136;11.536;2024-03-08T13:46:21;18.27;;;11.27;;
7503;SDS011;3793;48.136;11.536;2024-03-08T13:48:47;18.00;;;11.43;;
7503;SDS011;3793;48.136;11.536;2024-03-08T13:51:15;16.90;;;11.10;;
7503;SDS011;3793;48.136;11.536;2024-03-08T13:53:42;17.13;;;11.90;;
7503;SDS011;3793;48.136;11.536;2024-03-08T13:56:09;17.57;;;11.70;;
7503;SDS011;3793;48.136;11.536;2024-03-08T13:58:41;16.07;;;10.93;;
7503;SDS011;3793;48.136;11.536;2024-03-08T14:01:09;16.40;;;11.03;;
7503;SDS011;3793;48.136;11.536;2024-03-08T14:03:37;14.93;;;10.97;;
7503;SDS011;3793;48.136;11.536;2024-03-08T14:06:07;18.37;;;11.80;;
7503;SDS011;3793;48.136;11.536;2024-03-08T14:08:34;15.27;;;10.67;;
7503;SDS011;3793;48.136;11.536;2024-03-08T14:11:03;15.40;;;11.50;;
7503;SDS011;3793;48.136;11.536;2024-03-08T14:13:38;15.60;;;11.27;;
7503;SDS011;3793;48.136;11.536;2024-03-08T14:16:07;15.17;;;11.03;;
7503;SDS011;3793;48.136;11.536;2024-03-08T14:18:35;14.57;;;11.27;;
7503;SDS011;3793;48.136;11.536;2024-03-08T14:21:04;16.77;;;10.67;;
7503;SDS011;3793;48.136;11.536;2024-03-08T14:23:33;14.93;;;11.13;;
7503;SDS011;3793;48.136;11.536;2024-03-08T14:26:01;14.83;;;10.57;;
7503;SDS011;3793;48.136;11.536;2024-03-08T14:28:28;14.10;;;10.20;;
7503;SDS011;3793;48.136;11.536;2024-03-08T14:30:56;13.13;;;10.50;;
7503;SDS011;3793;48.136;11.536;2024-03-08T14:33:23;15.70;;;10.43;;
7503;SDS011;3793;48.136;11.536;2024-03-08T14:35:50;16.40;;;11.40;;
7503;SDS011;3793;48.136;11.536;2024-03-08T14:38:17;13.85;;;10.73;;